createdAt,value
2023-05-03T00:00:08.065Z,82.10
2023-05-03T00:02:35.626Z,83.05
2023-05-03T00:05:02.266Z,82.51
2023-05-03T00:07:28.739Z,79.46
2023-05-03T00:09:55.188Z,80.25
2023-05-03T00:12:22.832Z,80.19
2023-05-03T00:14:49.432Z,81.75
2023-05-03T00:17:15.898Z,81.99
2023-05-03T00:19:42.616Z,83.22
2023-05-03T00:22:09.281Z,83.46
2023-05-03T00:24:35.837Z,83.06
2023-05-03T00:27:03.640Z,84.00
2023-05-03T00:29:30.487Z,83.91
2023-05-03T00:31:56.920Z,84.02
2023-05-03T00:34:23.374Z,83.20
2023-05-03T00:36:49.993Z,81.28
2023-05-03T00:39:16.969Z,79.86
2023-05-03T00:41:43.439Z,79.64
2023-05-03T00:44:09.912Z,80.11
2023-05-03T00:46:36.468Z,80.75
2023-05-03T00:49:03.005Z,81.65
2023-05-03T00:51:29.544Z,80.76
2023-05-03T00:53:56.596Z,82.08
2023-05-03T00:56:23.784Z,83.70
2023-05-03T00:58:53.483Z,82.94
2023-05-03T01:01:20.167Z,83.67
2023-05-03T01:03:47.439Z,84.60
2023-05-03T01:06:21.789Z,84.71
2023-05-03T01:08:54.801Z,85.01
2023-05-03T01:11:23.983Z,84.84
2023-05-03T01:14:00.857Z,84.03
2023-05-03T01:16:34.589Z,83.83
2023-05-03T01:19:02.837Z,83.39
2023-05-03T01:21:30.955Z,83.00
2023-05-03T01:24:01.162Z,84.39
2023-05-03T01:26:28.023Z,84.28
2023-05-03T01:28:54.870Z,83.95
2023-05-03T01:31:48.186Z,83.13
2023-05-03T01:34:21.895Z,83.29
2023-05-03T01:36:49.201Z,83.70
2023-05-03T01:39:21.050Z,84.32
2023-05-03T01:41:50.039Z,83.59
2023-05-03T01:44:19.496Z,84.88
2023-05-03T01:46:47.036Z,85.35
2023-05-03T01:49:13.859Z,85.03
2023-05-03T01:51:40.484Z,85.65
2023-05-03T01:54:07.026Z,86.21
2023-05-03T01:56:36.644Z,86.18
2023-05-03T01:59:03.797Z,85.28
2023-05-03T02:01:30.490Z,84.11
2023-05-03T02:03:57.026Z,82.76
2023-05-03T02:06:24.787Z,80.16
2023-05-03T02:08:51.586Z,79.52
2023-05-03T02:11:18.050Z,79.61
2023-05-03T02:13:45.801Z,78.54
2023-05-03T02:16:15.786Z,77.36
2023-05-03T02:18:43.363Z,77.74
2023-05-03T02:21:10.276Z,75.98
2023-05-03T02:23:36.779Z,75.72
2023-05-03T02:26:03.268Z,76.46
2023-05-03T02:28:29.758Z,75.95
2023-05-03T02:30:56.523Z,76.02
2023-05-03T02:33:23.763Z,76.68
2023-05-03T02:35:50.813Z,75.28
2023-05-03T02:38:17.427Z,74.20
2023-05-03T02:40:43.996Z,75.29
2023-05-03T02:43:10.576Z,74.46
2023-05-03T02:45:37.375Z,73.97
2023-05-03T02:48:04.236Z,73.05
2023-05-03T02:50:31.123Z,73.61
2023-05-03T02:52:57.730Z,74.15
2023-05-03T02:55:25.104Z,72.98
2023-05-03T02:57:51.671Z,73.92
2023-05-03T03:00:19.914Z,72.86
2023-05-03T03:02:46.624Z,73.15
2023-05-03T03:05:13.417Z,74.21
2023-05-03T03:07:44.946Z,73.02
2023-05-03T03:10:11.525Z,73.57
2023-05-03T03:12:38.571Z,73.82
2023-05-03T03:15:09.521Z,74.50
2023-05-03T03:17:39.930Z,75.62
2023-05-03T03:20:12.852Z,75.34
2023-05-03T03:22:43.896Z,76.38
2023-05-03T03:25:10.888Z,77.13
2023-05-03T03:27:39.166Z,77.72
2023-05-03T03:30:08.024Z,78.32
2023-05-03T03:32:37.385Z,76.92
2023-05-03T03:35:07.170Z,76.82
2023-05-03T03:37:33.740Z,76.02
2023-05-03T03:40:00.356Z,75.75
2023-05-03T03:42:27.086Z,75.05
2023-05-03T03:44:53.889Z,76.40
2023-05-03T03:47:20.604Z,79.50
2023-05-03T03:49:47.345Z,81.88
2023-05-03T03:52:14.013Z,82.60
2023-05-03T03:54:40.526Z,81.41
2023-05-03T03:57:07.104Z,79.84
2023-05-03T03:59:34.058Z,79.46
2023-05-03T04:02:00.604Z,78.93
2023-05-03T04:04:27.215Z,76.95
2023-05-03T04:06:55.635Z,76.82
2023-05-03T04:09:25.437Z,76.57
2023-05-03T04:11:51.939Z,77.41
2023-05-03T04:14:18.720Z,76.92
2023-05-03T04:16:46.060Z,75.89
2023-05-03T04:19:13.102Z,75.29
2023-05-03T04:21:41.400Z,74.89
2023-05-03T04:24:07.974Z,74.13
2023-05-03T04:26:35.243Z,73.24
2023-05-03T04:29:14.459Z,73.78
2023-05-03T04:31:42.854Z,72.88
2023-05-03T04:34:10.663Z,72.79
2023-05-03T04:36:37.997Z,72.54
2023-05-03T04:39:06.217Z,73.19
2023-05-03T04:41:33.648Z,72.92
2023-05-03T04:44:00.163Z,73.65
2023-05-03T04:46:27.746Z,72.92
2023-05-03T04:48:55.056Z,72.80
2023-05-03T04:51:21.855Z,72.30
2023-05-03T04:53:50.537Z,71.41
2023-05-03T04:56:26.007Z,71.36
2023-05-03T04:58:57.664Z,71.32
2023-05-03T05:01:27.992Z,72.93
2023-05-03T05:03:59.499Z,71.28
2023-05-03T05:06:33.111Z,71.18
2023-05-03T05:09:00.966Z,69.83
2023-05-03T05:11:27.770Z,70.45
2023-05-03T05:13:54.781Z,69.15
2023-05-03T05:16:22.284Z,70.37
2023-05-03T05:18:52.413Z,70.24
2023-05-03T05:21:20.944Z,69.81
2023-05-03T05:23:47.706Z,69.40
2023-05-03T05:26:14.496Z,68.48
2023-05-03T05:28:41.951Z,68.40
2023-05-03T05:31:09.266Z,69.00
2023-05-03T05:33:36.433Z,68.05
2023-05-03T05:36:04.570Z,67.53
2023-05-03T05:38:32.430Z,67.06
2023-05-03T05:41:00.179Z,67.20
2023-05-03T05:43:26.864Z,67.07
2023-05-03T05:45:54.543Z,67.04
2023-05-03T05:48:22.118Z,65.61
2023-05-03T05:50:48.897Z,65.14
2023-05-03T05:53:15.743Z,65.68
2023-05-03T05:55:49.548Z,66.03
2023-05-03T05:58:16.360Z,65.34
2023-05-03T06:00:51.300Z,64.46
2023-05-03T06:03:18.295Z,64.50
2023-05-03T06:05:47.484Z,63.55
2023-05-03T06:08:13.974Z,64.87
2023-05-03T06:10:40.460Z,64.54
2023-05-03T06:13:07.079Z,63.21
2023-05-03T06:15:34.495Z,62.67
2023-05-03T06:18:01.331Z,61.82
2023-05-03T06:20:27.903Z,62.43
2023-05-03T06:22:54.939Z,63.35
2023-05-03T06:25:21.671Z,63.03
2023-05-03T06:27:50.133Z,61.88
2023-05-03T06:30:19.370Z,61.30
2023-05-03T06:32:47.480Z,61.40
2023-05-03T06:35:14.318Z,62.08
2023-05-03T06:37:41.086Z,61.56
2023-05-03T06:40:07.803Z,61.07
2023-05-03T06:42:36.320Z,61.27
2023-05-03T06:45:09.418Z,60.94
2023-05-03T06:47:37.886Z,60.97
2023-05-03T06:50:05.324Z,60.24
2023-05-03T06:52:32.155Z,61.67
2023-05-03T06:54:58.722Z,63.59
2023-05-03T06:57:27.052Z,61.96
2023-05-03T06:59:55.276Z,59.74
2023-05-03T07:02:21.774Z,58.03
2023-05-03T07:04:48.303Z,57.48
2023-05-03T07:07:15.870Z,58.48
2023-05-03T07:09:43.687Z,58.08
2023-05-03T07:12:10.910Z,57.91
2023-05-03T07:14:38.374Z,58.20
2023-05-03T07:17:04.843Z,58.59
2023-05-03T07:19:32.018Z,57.67
2023-05-03T07:21:58.516Z,59.38
2023-05-03T07:24:25.961Z,57.91
2023-05-03T07:26:52.997Z,58.03
2023-05-03T07:29:19.510Z,57.51
2023-05-03T07:31:46.132Z,58.98
2023-05-03T07:34:13.008Z,56.92
2023-05-03T07:36:39.546Z,57.37
2023-05-03T07:39:06.290Z,55.92
2023-05-03T07:41:32.803Z,57.79
2023-05-03T07:43:59.302Z,56.43
2023-05-03T07:46:26.125Z,57.27
2023-05-03T07:48:52.708Z,55.14
2023-05-03T07:51:19.195Z,55.11
2023-05-03T07:53:45.676Z,56.97
2023-05-03T07:56:12.481Z,56.45
2023-05-03T07:58:40.580Z,56.83
2023-05-03T08:01:09.754Z,55.94
2023-05-03T08:03:36.545Z,54.57
2023-05-03T08:06:03.298Z,55.85
2023-05-03T08:08:31.590Z,54.01
2023-05-03T08:10:58.037Z,55.43
2023-05-03T08:13:24.547Z,55.79
2023-05-03T08:15:51.131Z,54.17
2023-05-03T08:18:17.647Z,54.16
2023-05-03T08:20:44.883Z,54.72
2023-05-03T08:23:11.376Z,55.24
2023-05-03T08:25:37.902Z,54.71
2023-05-03T08:28:04.613Z,54.19
2023-05-03T08:30:31.552Z,54.83
2023-05-03T08:32:58.147Z,53.55
2023-05-03T08:35:25.356Z,53.61
2023-05-03T08:37:51.833Z,52.99
2023-05-03T08:40:22.238Z,51.13
2023-05-03T08:42:50.086Z,52.87
2023-05-03T08:45:17.015Z,53.86
2023-05-03T08:47:45.202Z,54.31
2023-05-03T08:50:12.904Z,50.85
2023-05-03T08:52:40.293Z,49.91
2023-05-03T08:55:07.648Z,52.57
2023-05-03T08:57:34.837Z,52.16
2023-05-03T09:00:01.988Z,51.29
2023-05-03T09:02:29.122Z,51.62
2023-05-03T09:04:56.685Z,48.96
2023-05-03T09:07:23.192Z,50.12
2023-05-03T09:09:49.733Z,50.16
2023-05-03T09:12:38.500Z,50.25
2023-05-03T09:15:06.503Z,51.01
2023-05-03T09:17:33.470Z,51.51
2023-05-03T09:20:00.526Z,52.19
2023-05-03T09:22:28.524Z,50.22
2023-05-03T09:24:56.205Z,50.63
2023-05-03T09:27:23.857Z,50.40
2023-05-03T09:29:50.871Z,48.95
2023-05-03T09:32:17.609Z,50.54
2023-05-03T09:34:44.599Z,48.08
2023-05-03T09:37:11.779Z,50.53
2023-05-03T09:39:38.327Z,49.91
2023-05-03T09:42:15.019Z,47.03
2023-05-03T09:44:42.563Z,48.68
2023-05-03T09:47:09.408Z,49.04
2023-05-03T09:49:37.133Z,46.77
2023-05-03T09:52:04.175Z,47.96
2023-05-03T09:54:35.313Z,47.58
2023-05-03T09:57:04.699Z,47.46
2023-05-03T09:59:32.131Z,47.83
2023-05-03T10:01:59.833Z,49.35
2023-05-03T10:04:33.180Z,48.24
2023-05-03T10:07:04.314Z,48.07
2023-05-03T10:09:42.614Z,46.78
2023-05-03T10:12:09.678Z,47.70
2023-05-03T10:14:36.331Z,47.00
2023-05-03T10:17:04.618Z,47.12
2023-05-03T10:19:31.181Z,48.76
2023-05-03T10:22:04.836Z,49.04
2023-05-03T10:24:32.073Z,47.59
2023-05-03T10:26:58.569Z,47.95
2023-05-03T10:29:37.633Z,48.43
2023-05-03T10:32:05.154Z,47.66
2023-05-03T10:34:32.559Z,48.36
2023-05-03T10:37:01.710Z,47.06
2023-05-03T10:39:28.726Z,49.63
2023-05-03T10:41:59.728Z,49.25
2023-05-03T10:44:34.896Z,49.89
2023-05-03T10:47:14.651Z,48.77
2023-05-03T10:49:41.121Z,48.00
2023-05-03T10:52:27.841Z,48.29
2023-05-03T10:54:54.410Z,47.04
2023-05-03T10:57:20.957Z,47.21
2023-05-03T10:59:49.086Z,46.51
2023-05-03T11:02:21.383Z,47.35
2023-05-03T11:04:50.113Z,46.93
2023-05-03T11:07:21.533Z,48.46
2023-05-03T11:09:48.142Z,48.55
2023-05-03T11:12:14.803Z,48.52
2023-05-03T11:14:42.483Z,48.08
2023-05-03T11:17:09.287Z,48.09
2023-05-03T11:19:35.899Z,48.65
2023-05-03T11:22:02.611Z,47.96
2023-05-03T11:24:29.375Z,46.15
2023-05-03T11:26:55.985Z,48.80
2023-05-03T11:29:24.159Z,57.19
2023-05-03T11:31:51.686Z,60.01
2023-05-03T11:34:18.315Z,61.62
2023-05-03T11:36:44.855Z,62.31
2023-05-03T11:39:11.761Z,64.53
2023-05-03T11:41:38.301Z,65.73
2023-05-03T11:44:16.352Z,65.26
2023-05-03T11:46:45.185Z,64.76
2023-05-03T11:49:17.299Z,64.66
2023-05-03T11:51:46.681Z,65.06
2023-05-03T11:56:47.352Z,65.07
2023-05-03T11:59:13.887Z,65.57
2023-05-03T12:01:41.525Z,66.42
2023-05-03T12:04:08.296Z,66.10
2023-05-03T12:06:36.396Z,66.76
2023-05-03T12:09:05.317Z,67.24
2023-05-03T12:11:40.609Z,65.64
2023-05-03T12:14:07.729Z,68.13
2023-05-03T12:16:50.348Z,67.39
2023-05-03T12:19:27.453Z,65.56
2023-05-03T12:22:13.459Z,66.72
2023-05-03T12:24:42.471Z,66.09
2023-05-03T12:27:14.271Z,67.85
2023-05-03T12:29:41.906Z,69.46
2023-05-03T12:32:11.088Z,72.97
2023-05-03T12:34:41.123Z,72.51
2023-05-03T12:37:12.158Z,74.28
2023-05-03T12:39:40.074Z,77.36
2023-05-03T12:42:09.160Z,76.90
2023-05-03T12:44:42.758Z,76.71
2023-05-03T12:47:10.545Z,77.92
2023-05-03T12:49:39.212Z,79.15
2023-05-03T12:52:35.458Z,81.84
2023-05-03T12:54:55.676Z,81.45
2023-05-03T12:57:23.967Z,81.85
2023-05-03T12:59:54.164Z,80.96
2023-05-03T13:04:58.965Z,84.25
2023-05-03T13:07:32.401Z,84.74
2023-05-03T13:12:34.109Z,87.74
2023-05-03T13:15:02.489Z,86.83
2023-05-03T13:17:30.450Z,88.09
2023-05-03T13:19:57.070Z,87.48
2023-05-03T13:22:23.618Z,87.45
2023-05-03T13:24:50.132Z,87.28
2023-05-03T13:27:17.907Z,87.87
2023-05-03T13:29:46.127Z,87.10
2023-05-03T13:32:14.151Z,86.60
2023-05-03T13:34:40.745Z,88.07
2023-05-03T13:37:07.283Z,88.17
2023-05-03T13:39:33.794Z,86.85
2023-05-03T13:42:00.335Z,86.73
2023-05-03T13:44:26.905Z,87.50
2023-05-03T13:46:53.769Z,88.03
2023-05-03T13:49:20.745Z,89.22
2023-05-03T13:51:47.559Z,88.14
2023-05-03T13:54:14.057Z,90.20
2023-05-03T13:56:42.650Z,89.47
2023-05-03T13:59:11.317Z,87.47
2023-05-03T14:01:38.259Z,86.08
2023-05-03T14:04:05.212Z,85.21
2023-05-03T14:06:33.584Z,85.99
2023-05-03T14:09:01.700Z,85.63
2023-05-03T14:11:29.824Z,85.13
2023-05-03T14:13:57.840Z,86.44
2023-05-03T14:18:55.957Z,85.64
2023-05-03T14:21:22.643Z,83.69
2023-05-03T14:23:53.395Z,84.25
2023-05-03T14:26:22.013Z,84.57
2023-05-03T14:28:48.470Z,84.82
2023-05-03T14:31:15.189Z,86.20
2023-05-03T14:33:41.977Z,86.59
2023-05-03T14:36:09.193Z,87.39
2023-05-03T14:38:36.319Z,86.85
2023-05-03T14:41:02.813Z,86.38
2023-05-03T14:43:29.226Z,88.73
2023-05-03T14:45:55.798Z,89.14
2023-05-03T14:48:22.333Z,90.92
2023-05-03T14:50:52.339Z,90.64
2023-05-03T14:53:19.058Z,91.36
2023-05-03T14:55:46.071Z,92.00
2023-05-03T15:00:42.479Z,93.18
2023-05-03T15:03:13.045Z,93.94
2023-05-03T15:05:46.582Z,93.12
2023-05-03T15:08:19.266Z,93.04
2023-05-03T15:10:46.648Z,92.53
2023-05-03T15:13:13.887Z,92.63
2023-05-03T15:15:40.969Z,92.78
2023-05-03T15:18:08.577Z,94.04
2023-05-03T15:20:35.276Z,94.74
2023-05-03T15:23:02.701Z,94.80
2023-05-03T15:25:29.246Z,93.85
2023-05-03T15:27:56.159Z,93.55
2023-05-03T15:30:22.909Z,93.52
2023-05-03T15:32:49.351Z,91.78
2023-05-03T15:35:16.168Z,90.71
2023-05-03T15:37:42.709Z,90.65
2023-05-03T15:40:10.691Z,90.93
2023-05-03T15:42:37.722Z,89.66
2023-05-03T15:45:05.916Z,87.93
2023-05-03T15:47:33.341Z,87.91
2023-05-03T15:49:59.909Z,86.73
2023-05-03T15:52:26.436Z,85.46
2023-05-03T15:54:54.315Z,86.39
2023-05-03T15:57:20.795Z,87.80
2023-05-03T15:59:47.421Z,89.74
2023-05-03T16:02:13.860Z,88.22
2023-05-03T16:04:40.409Z,89.77
2023-05-03T16:07:07.876Z,89.21
2023-05-03T16:09:34.435Z,90.34
2023-05-03T16:12:01.248Z,90.73
2023-05-03T16:14:27.732Z,91.30
2023-05-03T16:16:54.178Z,92.12
2023-05-03T16:19:21.393Z,92.51
2023-05-03T16:21:47.966Z,92.83
2023-05-03T16:24:14.532Z,93.02
2023-05-03T16:26:41.293Z,93.29
2023-05-03T16:29:07.774Z,91.92
2023-05-03T16:31:34.320Z,91.93
2023-05-03T16:34:01.232Z,91.01
2023-05-03T16:36:28.044Z,90.53
2023-05-03T16:38:54.559Z,89.92
2023-05-03T16:41:21.307Z,88.75
2023-05-03T16:43:47.813Z,88.66
2023-05-03T16:46:14.365Z,89.87
2023-05-03T16:48:41.288Z,89.32
2023-05-03T16:51:07.789Z,90.09
2023-05-03T16:53:34.286Z,90.43
2023-05-03T16:56:01.184Z,90.32
2023-05-03T16:58:27.758Z,89.19
2023-05-03T17:00:54.343Z,87.29
2023-05-03T17:03:20.956Z,86.98
2023-05-03T17:05:47.538Z,87.56
2023-05-03T17:08:14.522Z,87.06
2023-05-03T17:10:41.646Z,86.36
2023-05-03T17:13:09.903Z,85.21
2023-05-03T17:15:36.874Z,85.13
2023-05-03T17:18:04.910Z,85.90
2023-05-03T17:20:31.612Z,87.25
2023-05-03T17:22:58.493Z,86.90
2023-05-03T17:25:24.976Z,88.96
2023-05-03T17:27:52.295Z,88.23
2023-05-03T17:30:21.231Z,88.62
2023-05-03T17:32:48.580Z,88.66
2023-05-03T17:35:15.164Z,88.44
2023-05-03T17:37:41.703Z,87.61
2023-05-03T17:40:08.688Z,87.81
2023-05-03T17:42:35.505Z,90.89
2023-05-03T17:45:02.491Z,91.76
2023-05-03T17:47:29.420Z,92.00
2023-05-03T17:49:56.274Z,92.95
2023-05-03T17:52:22.937Z,92.74
2023-05-03T17:54:52.388Z,92.20
2023-05-03T17:57:20.562Z,91.79
2023-05-03T17:59:48.173Z,91.70
2023-05-03T18:02:14.642Z,91.45
2023-05-03T18:04:41.204Z,91.41
2023-05-03T18:07:07.903Z,91.65
2023-05-03T18:09:34.450Z,91.12
2023-05-03T18:12:03.448Z,92.02
2023-05-03T18:14:30.226Z,91.28
2023-05-03T18:16:56.728Z,91.59
2023-05-03T18:19:23.880Z,92.26
2023-05-03T18:21:50.512Z,92.44
2023-05-03T18:24:17.117Z,93.76
2023-05-03T18:26:43.611Z,94.07
2023-05-03T18:29:10.166Z,93.81
2023-05-03T18:31:36.807Z,92.56
2023-05-03T18:34:03.290Z,92.36
2023-05-03T18:36:29.814Z,92.60
2023-05-03T18:38:56.344Z,93.63
2023-05-03T18:41:23.053Z,95.32
2023-05-03T18:43:50.441Z,95.08
2023-05-03T18:46:17.868Z,94.18
2023-05-03T18:48:44.342Z,93.46
2023-05-03T18:51:10.964Z,90.70
2023-05-03T18:53:37.507Z,88.73
2023-05-03T18:56:04.703Z,85.75
2023-05-03T18:58:31.436Z,86.32
2023-05-03T19:01:01.086Z,85.60
2023-05-03T19:03:29.432Z,85.61
2023-05-03T19:05:56.428Z,82.58
2023-05-03T19:08:22.859Z,82.90
2023-05-03T19:10:49.441Z,82.56
2023-05-03T19:13:16.693Z,81.82
2023-05-03T19:15:43.837Z,81.25
2023-05-03T19:18:10.478Z,80.24
2023-05-03T19:20:37.085Z,79.09
2023-05-03T19:23:03.596Z,79.91
2023-05-03T19:25:30.272Z,80.00
2023-05-03T19:27:56.827Z,80.80
2023-05-03T19:30:23.309Z,79.26
2023-05-03T19:32:49.855Z,79.05
2023-05-03T19:35:16.405Z,78.81
2023-05-03T19:37:44.491Z,78.74
2023-05-03T19:40:11.400Z,77.76
2023-05-03T19:42:37.942Z,78.56
2023-05-03T19:45:04.667Z,78.67
2023-05-03T19:47:31.543Z,81.61
2023-05-03T19:49:58.087Z,81.08
2023-05-03T19:52:24.600Z,81.33
2023-05-03T19:54:51.027Z,80.92
2023-05-03T19:57:17.491Z,81.40
2023-05-03T19:59:43.970Z,81.18
2023-05-03T20:02:10.484Z,81.35
2023-05-03T20:04:37.039Z,81.16
2023-05-03T20:07:03.880Z,80.24
2023-05-03T20:09:30.307Z,80.37
2023-05-03T20:11:58.862Z,80.37
2023-05-03T20:14:27.176Z,80.17
2023-05-03T20:16:53.775Z,80.04
2023-05-03T20:19:20.249Z,81.17
2023-05-03T20:21:47.044Z,81.06
2023-05-03T20:24:14.708Z,79.30
2023-05-03T20:26:41.587Z,81.10
2023-05-03T20:29:08.013Z,77.54
2023-05-03T20:31:34.582Z,76.83
2023-05-03T20:34:01.333Z,75.69
2023-05-03T20:36:28.077Z,74.97
2023-05-03T20:38:54.851Z,77.11
2023-05-03T20:41:21.837Z,77.00
2023-05-03T20:43:48.624Z,76.59
2023-05-03T20:46:15.194Z,78.45
2023-05-03T20:48:41.705Z,77.39
2023-05-03T20:51:08.587Z,77.08
2023-05-03T20:53:35.160Z,76.37
2023-05-03T20:56:06.098Z,74.19
2023-05-03T20:58:33.063Z,74.09
2023-05-03T21:01:01.095Z,73.85
2023-05-03T21:03:27.713Z,73.67
2023-05-03T21:05:54.281Z,74.57
2023-05-03T21:08:20.775Z,74.66
2023-05-03T21:10:47.221Z,76.28
2023-05-03T21:13:13.992Z,76.33
2023-05-03T21:15:40.618Z,75.85
2023-05-03T21:18:07.154Z,78.41
2023-05-03T21:20:33.893Z,79.45
2023-05-03T21:23:00.569Z,80.15
2023-05-03T21:25:27.086Z,80.05
2023-05-03T21:27:54.056Z,81.08
2023-05-03T21:30:20.910Z,80.52
2023-05-03T21:32:50.365Z,80.53
2023-05-03T21:35:17.350Z,82.17
2023-05-03T21:37:45.213Z,82.28
2023-05-03T21:40:13.188Z,83.27
2023-05-03T21:42:39.827Z,83.01
2023-05-03T21:45:06.973Z,82.70
2023-05-03T21:47:33.493Z,83.35
2023-05-03T21:50:00.448Z,84.20
2023-05-03T21:52:27.523Z,84.33
2023-05-03T21:54:54.412Z,83.89
2023-05-03T21:57:20.883Z,83.63
2023-05-03T21:59:47.399Z,83.83
2023-05-03T22:02:13.910Z,84.69
2023-05-03T22:04:40.330Z,85.14
2023-05-03T22:07:06.792Z,84.74
2023-05-03T22:09:33.422Z,82.94
2023-05-03T22:12:03.820Z,82.77
2023-05-03T22:14:35.309Z,79.44
2023-05-03T22:17:01.779Z,79.88
2023-05-03T22:19:28.474Z,80.42
2023-05-03T22:21:55.164Z,82.35
2023-05-03T22:24:21.646Z,82.40
2023-05-03T22:26:48.128Z,82.31
2023-05-03T22:29:14.723Z,82.63
2023-05-03T22:31:41.450Z,83.25
2023-05-03T22:34:07.899Z,81.66
2023-05-03T22:36:34.410Z,84.51
2023-05-03T22:39:05.215Z,86.85
2023-05-03T22:41:32.937Z,87.58
2023-05-03T22:43:59.395Z,88.12
2023-05-03T22:46:26.027Z,86.89
2023-05-03T22:48:52.740Z,86.09
2023-05-03T22:51:19.384Z,87.28
2023-05-03T22:53:45.960Z,87.66
2023-05-03T22:56:13.325Z,88.21
2023-05-03T22:58:39.869Z,87.45
2023-05-03T23:01:11.420Z,86.95
2023-05-03T23:03:38.047Z,87.17
2023-05-03T23:06:04.682Z,86.20
2023-05-03T23:08:31.349Z,86.68
2023-05-03T23:10:59.425Z,87.66
2023-05-03T23:13:27.269Z,87.35
2023-05-03T23:15:57.071Z,88.09
2023-05-03T23:18:23.598Z,88.13
2023-05-03T23:20:50.194Z,87.59
2023-05-03T23:23:16.815Z,88.08
2023-05-03T23:25:43.350Z,87.96
2023-05-03T23:28:09.993Z,87.28
2023-05-03T23:30:37.040Z,87.95
2023-05-03T23:33:04.219Z,87.47
2023-05-03T23:35:31.114Z,87.78
2023-05-03T23:37:57.700Z,87.62
2023-05-03T23:40:24.314Z,87.77
2023-05-03T23:42:50.870Z,87.94
2023-05-03T23:45:17.350Z,86.81
2023-05-03T23:47:44.012Z,86.49
2023-05-03T23:50:10.691Z,86.34
2023-05-03T23:52:37.241Z,86.80
2023-05-03T23:55:04.219Z,86.45
2023-05-03T23:57:31.050Z,86.47
2023-05-03T23:59:57.736Z,87.67
